createdAt,value
2023-01-02T00:01:20.927Z,5.68
2023-01-02T00:03:48.052Z,5.30
2023-01-02T00:06:17.711Z,5.37
2023-01-02T00:08:44.845Z,5.97
2023-01-02T00:11:11.957Z,5.03
2023-01-02T00:13:39.711Z,6.25
2023-01-02T00:16:08.968Z,6.07
2023-01-02T00:18:36.091Z,5.87
2023-01-02T00:21:05.356Z,6.07
2023-01-02T00:23:32.831Z,5.68
2023-01-02T00:26:00.523Z,6.00
2023-01-02T00:28:28.061Z,6.10
2023-01-02T00:30:55.103Z,5.83
2023-01-02T00:33:22.438Z,6.10
2023-01-02T00:35:49.512Z,6.55
2023-01-02T00:38:19.234Z,6.28
2023-01-02T00:40:46.314Z,6.72
2023-01-02T00:43:13.337Z,6.13
2023-01-02T00:45:40.385Z,6.05
2023-01-02T00:48:07.488Z,6.80
2023-01-02T00:50:36.188Z,6.35
2023-01-02T00:53:03.316Z,6.40
2023-01-02T00:55:30.340Z,6.17
2023-01-02T00:57:57.418Z,6.07
2023-01-02T01:00:24.690Z,6.53
2023-01-02T01:02:59.338Z,6.20
2023-01-02T01:05:28.461Z,6.28
2023-01-02T01:07:57.271Z,6.13
2023-01-02T01:10:25.920Z,6.82
2023-01-02T01:12:53.369Z,6.65
2023-01-02T01:15:20.479Z,6.03
2023-01-02T01:17:47.587Z,6.35
2023-01-02T01:20:14.731Z,6.10
2023-01-02T01:22:41.841Z,6.20
2023-01-02T01:25:09.509Z,5.97
2023-01-02T01:27:37.100Z,5.97
2023-01-02T01:30:06.556Z,6.68
2023-01-02T01:32:34.419Z,5.73
2023-01-02T01:35:01.622Z,6.32
2023-01-02T01:37:28.777Z,6.55
2023-01-02T01:39:56.989Z,6.07
2023-01-02T01:42:24.508Z,5.80
2023-01-02T01:44:55.012Z,6.57
2023-01-02T01:47:35.348Z,6.00
2023-01-02T01:50:30.025Z,6.70
2023-01-02T01:53:00.817Z,5.70
2023-01-02T01:55:49.014Z,6.85
2023-01-02T01:58:45.701Z,5.57
2023-01-02T02:01:16.246Z,5.85
2023-01-02T02:03:47.216Z,6.63
2023-01-02T02:06:14.869Z,6.60
2023-01-02T02:08:59.028Z,6.35
2023-01-02T02:11:27.284Z,5.67
2023-01-02T02:14:00.251Z,5.85
2023-01-02T02:16:35.460Z,6.35
2023-01-02T02:19:25.170Z,6.40
2023-01-02T02:21:55.824Z,6.68
2023-01-02T02:24:52.855Z,6.27
2023-01-02T02:27:47.049Z,6.70
2023-01-02T02:30:31.247Z,6.18
2023-01-02T02:33:18.099Z,6.25
2023-01-02T02:36:01.653Z,5.93
2023-01-02T02:38:49.603Z,5.83
2023-01-02T02:41:41.709Z,5.60
2023-01-02T02:44:43.072Z,6.00
2023-01-02T02:47:22.449Z,5.28
2023-01-02T02:50:10.178Z,5.95
2023-01-02T02:53:14.798Z,5.63
2023-01-02T02:55:50.999Z,5.25
2023-01-02T02:58:21.425Z,5.60
2023-01-02T03:00:48.571Z,5.75
2023-01-02T03:03:22.244Z,5.65
2023-01-02T03:06:17.892Z,4.97
2023-01-02T03:09:06.641Z,4.82
2023-01-02T03:11:58.792Z,5.85
2023-01-02T03:15:17.107Z,4.93
2023-01-02T03:18:02.534Z,4.70
2023-01-02T03:20:40.540Z,4.70
2023-01-02T03:23:16.033Z,4.78
2023-01-02T03:25:44.539Z,4.80
2023-01-02T03:28:14.996Z,4.03
2023-01-02T03:30:44.731Z,5.03
2023-01-02T03:33:17.424Z,4.50
2023-01-02T03:35:54.275Z,3.95
2023-01-02T03:38:36.147Z,4.57
2023-01-02T03:41:22.045Z,3.97
2023-01-02T03:43:57.048Z,4.57
2023-01-02T03:46:49.849Z,4.10
2023-01-02T03:49:36.989Z,3.95
2023-01-02T03:52:04.171Z,3.75
2023-01-02T03:54:32.007Z,4.30
2023-01-02T03:57:13.631Z,3.72
2023-01-02T04:00:08.848Z,3.47
2023-01-02T04:03:07.719Z,3.90
2023-01-02T04:05:50.161Z,4.15
2023-01-02T04:08:20.871Z,4.50
2023-01-02T04:10:58.049Z,3.85
2023-01-02T04:13:34.613Z,3.47
2023-01-02T04:16:04.338Z,3.60
2023-01-02T04:18:46.332Z,3.88
2023-01-02T04:21:19.774Z,3.95
2023-01-02T04:24:11.133Z,4.40
2023-01-02T04:27:01.621Z,3.50
2023-01-02T04:29:29.467Z,3.83
2023-01-02T04:32:35.461Z,3.47
2023-01-02T04:35:09.682Z,4.07
2023-01-02T04:37:40.386Z,3.67
2023-01-02T04:40:17.741Z,4.30
2023-01-02T04:42:45.301Z,4.88
2023-01-02T04:45:13.032Z,4.90
2023-01-02T04:47:40.444Z,4.53
2023-01-02T04:50:09.247Z,4.72
2023-01-02T04:52:37.448Z,5.00
2023-01-02T04:55:08.250Z,4.82
2023-01-02T04:57:35.973Z,5.60
2023-01-02T05:00:05.273Z,4.60
2023-01-02T05:02:39.592Z,5.15
2023-01-02T05:05:08.422Z,5.03
2023-01-02T05:07:36.905Z,4.32
2023-01-02T05:10:05.497Z,5.18
2023-01-02T05:12:36.977Z,4.45
2023-01-02T05:15:06.215Z,4.68
2023-01-02T05:17:38.374Z,4.50
2023-01-02T05:20:09.340Z,5.03
2023-01-02T05:23:01.012Z,5.35
2023-01-02T05:25:32.392Z,5.00
2023-01-02T05:27:59.635Z,5.20
2023-01-02T05:30:26.672Z,5.13
2023-01-02T05:32:53.767Z,5.38
2023-01-02T05:35:21.110Z,5.30
2023-01-02T05:37:48.240Z,5.47
2023-01-02T05:40:15.412Z,5.78
2023-01-02T05:42:42.508Z,6.03
2023-01-02T05:45:09.993Z,6.63
2023-01-02T05:47:38.497Z,6.93
2023-01-02T05:50:06.389Z,6.93
2023-01-02T05:52:33.497Z,6.90
2023-01-02T05:55:01.417Z,7.60
2023-01-02T05:57:28.538Z,7.63
2023-01-02T05:59:55.661Z,4.45
2023-01-02T06:02:22.972Z,1.40
2023-01-02T06:04:50.098Z,0.60
2023-01-02T06:07:18.378Z,0.50
2023-01-02T06:09:45.497Z,0.98
2023-01-02T06:12:12.601Z,0.90
2023-01-02T06:14:39.650Z,0.60
2023-01-02T06:17:06.754Z,0.65
2023-01-02T06:19:33.838Z,0.70
2023-01-02T06:22:00.952Z,1.02
2023-01-02T06:24:28.534Z,1.02
2023-01-02T06:26:56.153Z,0.90
2023-01-02T06:29:23.233Z,1.10
2023-01-02T06:31:51.847Z,1.13
2023-01-02T06:34:19.259Z,1.35
2023-01-02T06:36:46.376Z,1.40
2023-01-02T06:39:13.531Z,1.50
2023-01-02T06:41:40.650Z,2.30
2023-01-02T06:44:09.828Z,1.90
2023-01-02T06:46:36.886Z,2.60
2023-01-02T06:49:04.042Z,2.35
2023-01-02T06:51:31.117Z,2.17
2023-01-02T06:53:58.221Z,2.25
2023-01-02T06:56:25.335Z,2.03
2023-01-02T06:58:52.465Z,2.53
2023-01-02T07:01:23.584Z,2.75
2023-01-02T07:03:51.303Z,2.38
2023-01-02T07:06:21.350Z,2.50
2023-01-02T07:08:48.947Z,3.00
2023-01-02T07:11:23.887Z,2.53
2023-01-02T07:13:53.860Z,2.75
2023-01-02T07:16:23.276Z,2.65
2023-01-02T07:18:53.333Z,2.40
2023-01-02T07:21:21.389Z,2.00
2023-01-02T07:23:48.498Z,1.85
2023-01-02T07:26:16.057Z,1.70
2023-01-02T07:28:43.639Z,1.35
2023-01-02T07:31:17.473Z,1.42
2023-01-02T07:33:44.635Z,1.70
2023-01-02T07:36:16.377Z,1.67
2023-01-02T07:38:43.605Z,1.70
2023-01-02T07:41:19.927Z,1.50
2023-01-02T07:43:48.431Z,1.70
2023-01-02T07:46:18.350Z,1.40
2023-01-02T07:48:46.315Z,1.42
2023-01-02T07:51:18.449Z,1.90
2023-01-02T07:53:48.244Z,1.42
2023-01-02T07:56:15.393Z,1.60
2023-01-02T07:58:42.477Z,1.40
2023-01-02T08:01:13.172Z,1.30
2023-01-02T08:03:40.815Z,1.13
2023-01-02T08:06:11.983Z,1.00
2023-01-02T08:08:39.746Z,0.95
2023-01-02T08:11:08.002Z,1.10
2023-01-02T08:13:35.866Z,0.95
2023-01-02T08:16:09.774Z,1.23
2023-01-02T08:18:37.597Z,1.33
2023-01-02T08:21:06.617Z,1.50
2023-01-02T08:23:34.368Z,1.37
2023-01-02T08:26:04.424Z,1.30
2023-01-02T08:28:32.369Z,1.60
2023-01-02T08:31:00.279Z,1.33
2023-01-02T08:33:27.916Z,1.35
2023-01-02T08:35:56.509Z,1.40
2023-01-02T08:38:23.623Z,1.60
2023-01-02T08:40:51.418Z,1.80
2023-01-02T08:43:18.555Z,2.38
2023-01-02T08:45:45.692Z,1.90
2023-01-02T08:48:20.664Z,2.20
2023-01-02T08:50:49.726Z,2.38
2023-01-02T08:53:17.285Z,2.50
2023-01-02T08:55:44.390Z,2.33
2023-01-02T08:58:11.594Z,2.30
2023-01-02T09:00:38.619Z,2.57
2023-01-02T09:03:05.827Z,2.65
2023-01-02T09:05:33.094Z,3.20
2023-01-02T09:08:02.151Z,2.38
2023-01-02T09:10:29.274Z,2.50
2023-01-02T09:12:56.290Z,2.43
2023-01-02T09:15:23.393Z,2.80
2023-01-02T09:17:50.517Z,3.03
2023-01-02T09:20:17.685Z,3.22
2023-01-02T09:22:44.866Z,4.03
2023-01-02T09:25:12.516Z,3.67
2023-01-02T09:27:39.625Z,3.10
2023-01-02T09:30:07.346Z,3.88
2023-01-02T09:32:34.400Z,3.90
2023-01-02T09:35:01.491Z,4.10
2023-01-02T09:37:30.935Z,3.57
2023-01-02T09:39:58.383Z,3.90
2023-01-02T09:42:25.498Z,4.07
2023-01-02T09:45:06.515Z,4.30
2023-01-02T09:47:36.214Z,4.53
2023-01-02T09:50:10.359Z,3.93
2023-01-02T09:52:42.067Z,4.30
2023-01-02T09:55:19.618Z,4.13
2023-01-02T09:57:57.540Z,4.25
2023-01-02T10:00:29.847Z,3.85
2023-01-02T10:03:39.079Z,4.30
2023-01-02T10:06:10.107Z,3.70
2023-01-02T10:09:08.272Z,3.60
2023-01-02T10:11:50.274Z,3.42
2023-01-02T10:14:58.136Z,2.50
2023-01-02T10:17:30.230Z,2.37
2023-01-02T10:20:07.706Z,2.00
2023-01-02T10:22:43.149Z,2.85
2023-01-02T10:25:23.638Z,2.40
2023-01-02T10:27:58.536Z,2.28
2023-01-02T10:30:29.283Z,1.90
2023-01-02T10:33:22.213Z,1.25
2023-01-02T10:36:00.482Z,1.52
2023-01-02T10:38:37.877Z,1.40
2023-01-02T10:41:06.272Z,0.90
2023-01-02T10:43:35.038Z,0.70
2023-01-02T10:46:03.910Z,0.73
2023-01-02T10:48:35.826Z,0.88
2023-01-02T10:51:07.341Z,0.90
2023-01-02T10:53:39.586Z,0.60
2023-01-02T10:56:20.961Z,0.60
2023-01-02T10:58:50.899Z,0.77
2023-01-02T11:01:21.687Z,0.73
2023-01-02T11:03:54.707Z,0.85
2023-01-02T11:06:38.964Z,0.90
2023-01-02T11:09:28.032Z,0.80
2023-01-02T11:12:11.694Z,1.10
2023-01-02T11:14:39.673Z,1.10
2023-01-02T11:17:22.103Z,0.63
2023-01-02T11:19:55.480Z,0.82
2023-01-02T11:22:36.195Z,0.90
2023-01-02T11:25:10.268Z,0.70
2023-01-02T11:27:42.394Z,0.90
2023-01-02T11:30:36.590Z,0.70
2023-01-02T11:33:27.212Z,0.80
2023-01-02T11:36:23.706Z,0.80
2023-01-02T11:38:53.964Z,0.90
2023-01-02T11:42:31.795Z,1.00
2023-01-02T11:45:11.979Z,1.00
2023-01-02T11:47:55.275Z,1.10
2023-01-02T11:50:34.067Z,0.70
2023-01-02T11:53:12.903Z,0.63
2023-01-02T11:56:01.520Z,0.80
2023-01-02T11:58:38.875Z,0.63
2023-01-02T12:01:13.475Z,0.85
2023-01-02T12:03:41.180Z,0.70
2023-01-02T12:06:22.640Z,4.63
2023-01-02T12:09:05.873Z,2.58
2023-01-02T12:11:59.187Z,2.20
2023-01-02T12:14:54.973Z,1.50
2023-01-02T12:17:47.624Z,0.90
2023-01-02T12:20:59.517Z,0.80
2023-01-02T12:23:40.566Z,5.60
2023-01-02T12:26:38.094Z,1.48
2023-01-02T12:29:46.082Z,1.08
2023-01-02T12:32:38.256Z,2.10
2023-01-02T12:35:20.475Z,1.67
2023-01-02T12:37:57.833Z,1.50
2023-01-02T12:41:10.638Z,1.50
2023-01-02T12:44:11.785Z,1.88
2023-01-02T12:47:03.450Z,1.50
2023-01-02T12:50:09.587Z,1.70
2023-01-02T12:52:39.564Z,2.13
2023-01-02T12:55:31.143Z,1.67
2023-01-02T12:58:06.946Z,1.80
2023-01-02T13:01:18.135Z,2.00
2023-01-02T13:03:50.019Z,1.67
2023-01-02T13:06:45.204Z,1.80
2023-01-02T13:09:24.337Z,1.83
2023-01-02T13:12:01.826Z,2.28
2023-01-02T13:14:55.172Z,2.30
2023-01-02T13:17:41.354Z,2.10
2023-01-02T13:20:21.642Z,3.30
2023-01-02T13:23:16.222Z,2.70
2023-01-02T13:25:51.723Z,2.88
2023-01-02T13:28:24.586Z,2.30
2023-01-02T13:31:05.244Z,3.08
2023-01-02T13:34:44.645Z,3.85
2023-01-02T13:37:19.180Z,4.13
2023-01-02T13:39:54.435Z,4.55
2023-01-02T13:42:53.752Z,4.97
2023-01-02T13:45:37.565Z,4.93
2023-01-02T13:48:24.426Z,4.80
2023-01-02T13:51:26.222Z,3.50
2023-01-02T13:53:55.833Z,2.90
2023-01-02T13:56:28.829Z,2.43
2023-01-02T13:59:41.822Z,4.00
2023-01-02T14:02:20.039Z,5.78
2023-01-02T14:04:47.535Z,5.95
2023-01-02T14:07:27.056Z,11.32
2023-01-02T14:10:29.427Z,38.87
2023-01-02T14:13:07.109Z,44.22
2023-01-02T14:16:02.097Z,27.08
2023-01-02T14:18:30.942Z,16.63
2023-01-02T14:20:58.238Z,8.68
2023-01-02T14:23:35.333Z,7.73
2023-01-02T14:26:02.465Z,7.72
2023-01-02T14:28:36.134Z,8.65
2023-01-02T14:31:18.663Z,8.30
2023-01-02T14:33:54.146Z,8.57
2023-01-02T14:36:26.380Z,9.23
2023-01-02T14:38:57.198Z,9.43
2023-01-02T14:42:10.560Z,10.05
2023-01-02T14:44:46.276Z,8.95
2023-01-02T14:47:19.030Z,9.10
2023-01-02T14:49:56.841Z,8.47
2023-01-02T14:52:34.128Z,9.35
2023-01-02T14:55:23.141Z,9.57
2023-01-02T14:57:52.945Z,9.32
2023-01-02T15:00:26.469Z,10.35
2023-01-02T15:03:33.470Z,8.80
2023-01-02T15:06:11.958Z,8.07
2023-01-02T15:08:52.593Z,9.98
2023-01-02T15:11:43.850Z,8.38
2023-01-02T15:14:23.377Z,8.95
2023-01-02T15:16:56.962Z,9.03
2023-01-02T15:19:31.016Z,8.25
2023-01-02T15:21:58.174Z,9.35
2023-01-02T15:24:30.308Z,8.77
2023-01-02T15:27:23.727Z,8.35
2023-01-02T15:29:54.962Z,8.50
2023-01-02T15:32:29.033Z,9.07
2023-01-02T15:35:15.729Z,8.25
2023-01-02T15:37:45.439Z,7.38
2023-01-02T15:40:31.991Z,8.00
2023-01-02T15:43:25.053Z,8.00
2023-01-02T15:45:53.321Z,8.10
2023-01-02T15:48:23.150Z,7.13
2023-01-02T15:50:54.615Z,6.70
2023-01-02T15:53:39.508Z,7.32
2023-01-02T15:56:10.766Z,6.17
2023-01-02T15:58:37.901Z,5.25
2023-01-02T16:01:13.266Z,5.53
2023-01-02T16:04:00.292Z,3.80
2023-01-02T16:06:38.649Z,3.25
2023-01-02T16:09:16.615Z,2.47
2023-01-02T16:11:50.743Z,2.67
2023-01-02T16:14:42.590Z,2.33
2023-01-02T16:17:24.994Z,1.50
2023-01-02T16:19:59.640Z,2.38
2023-01-02T16:22:53.197Z,1.77
2023-01-02T16:25:43.791Z,1.60
2023-01-02T16:28:34.626Z,2.15
2023-01-02T16:31:22.744Z,1.70
2023-01-02T16:33:50.373Z,2.60
2023-01-02T16:36:17.468Z,1.97
2023-01-02T16:38:50.315Z,1.80
2023-01-02T16:41:34.724Z,1.80
2023-01-02T16:44:03.181Z,1.70
2023-01-02T16:46:31.208Z,1.60
2023-01-02T16:49:04.873Z,1.43
2023-01-02T16:51:33.095Z,1.92
2023-01-02T16:54:00.909Z,2.72
2023-01-02T16:56:28.033Z,2.60
2023-01-02T16:58:55.739Z,2.80
2023-01-02T17:01:24.147Z,2.80
2023-01-02T17:03:51.271Z,2.90
2023-01-02T17:06:22.072Z,3.70
2023-01-02T17:08:49.125Z,3.03
2023-01-02T17:11:21.473Z,3.90
2023-01-02T17:13:49.476Z,4.03
2023-01-02T17:16:17.921Z,3.35
2023-01-02T17:18:45.392Z,3.42
2023-01-02T17:21:12.634Z,3.78
2023-01-02T17:23:39.768Z,3.47
2023-01-02T17:26:06.885Z,3.43
2023-01-02T17:28:34.014Z,3.30
2023-01-02T17:31:01.185Z,3.20
2023-01-02T17:33:28.264Z,3.83
2023-01-02T17:35:56.609Z,3.90
2023-01-02T17:38:23.655Z,4.13
2023-01-02T17:40:59.921Z,3.45
2023-01-02T17:43:27.027Z,3.80
2023-01-02T17:45:54.288Z,4.10
2023-01-02T17:48:24.778Z,3.88
2023-01-02T17:50:53.527Z,4.23
2023-01-02T17:53:20.817Z,3.70
2023-01-02T17:56:21.402Z,4.10
2023-01-02T17:58:43.389Z,3.78
2023-01-02T18:01:19.245Z,3.83
2023-01-02T18:03:47.607Z,3.70
2023-01-02T18:06:16.397Z,4.38
2023-01-02T18:08:44.349Z,4.25
2023-01-02T18:11:15.419Z,4.07
2023-01-02T18:13:49.631Z,4.70
2023-01-02T18:16:21.457Z,4.37
2023-01-02T18:18:50.783Z,4.72
2023-01-02T18:21:22.486Z,4.38
2023-01-02T18:24:03.264Z,4.60
2023-01-02T18:26:31.680Z,4.15
2023-01-02T18:29:09.329Z,3.83
2023-01-02T18:31:43.668Z,4.35
2023-01-02T18:37:27.015Z,4.55
2023-01-02T18:39:55.886Z,8.27
2023-01-02T18:42:29.933Z,9.23
2023-01-02T18:45:00.433Z,9.52
2023-01-02T18:47:36.950Z,10.88
2023-01-02T18:50:16.960Z,12.77
2023-01-02T18:52:48.728Z,12.80
2023-01-02T18:55:16.883Z,13.60
2023-01-02T18:57:50.763Z,13.43
2023-01-02T19:00:28.592Z,10.90
2023-01-02T19:03:11.677Z,8.90
2023-01-02T19:05:46.492Z,9.80
2023-01-02T19:08:39.885Z,9.77
2023-01-02T19:11:50.222Z,10.50
2023-01-02T19:14:23.837Z,11.23
2023-01-02T19:17:28.064Z,11.35
2023-01-02T19:19:56.066Z,11.57
2023-01-02T19:22:28.258Z,10.20
2023-01-02T19:25:00.529Z,10.07
2023-01-02T19:27:37.540Z,9.60
2023-01-02T19:30:35.594Z,8.98
2023-01-02T19:33:30.397Z,8.63
2023-01-02T19:36:01.433Z,8.00
2023-01-02T19:38:30.708Z,8.93
2023-01-02T19:40:58.902Z,10.55
2023-01-02T19:43:26.143Z,11.10
2023-01-02T19:45:53.387Z,12.38
2023-01-02T19:48:20.568Z,12.30
2023-01-02T19:50:47.753Z,12.70
2023-01-02T19:53:14.870Z,10.98
2023-01-02T19:55:42.012Z,10.63
2023-01-02T19:58:09.142Z,10.23
2023-01-02T20:00:36.165Z,8.77
2023-01-02T20:03:03.453Z,9.18
2023-01-02T20:05:30.860Z,8.07
2023-01-02T20:07:59.321Z,7.72
2023-01-02T20:10:26.672Z,7.45
2023-01-02T20:12:54.209Z,8.17
2023-01-02T20:15:25.193Z,8.20
2023-01-02T20:17:53.922Z,8.98
2023-01-02T20:20:24.298Z,9.52
2023-01-02T20:22:52.091Z,9.75
2023-01-02T20:25:24.589Z,9.90
2023-01-02T20:27:53.386Z,10.05
2023-01-02T20:30:24.513Z,10.68
2023-01-02T20:32:53.939Z,9.75
2023-01-02T20:35:21.258Z,10.80
2023-01-02T20:37:48.489Z,11.07
2023-01-02T20:40:15.989Z,11.32
2023-01-02T20:42:43.177Z,11.57
2023-01-02T20:45:11.030Z,10.48
2023-01-02T20:47:38.291Z,10.52
2023-01-02T20:50:06.314Z,11.13
2023-01-02T20:52:33.368Z,11.20
2023-01-02T20:55:00.662Z,11.23
2023-01-02T20:57:27.809Z,12.35
2023-01-02T20:59:54.995Z,12.40
2023-01-02T21:02:22.255Z,12.53
2023-01-02T21:04:49.466Z,13.10
2023-01-02T21:07:16.589Z,13.48
2023-01-02T21:09:43.725Z,12.82
2023-01-02T21:12:30.747Z,12.60
2023-01-02T21:14:58.209Z,12.90
2023-01-02T21:17:25.572Z,12.02
2023-01-02T21:19:52.631Z,12.63
2023-01-02T21:22:19.677Z,12.07
2023-01-02T21:24:47.013Z,11.63
2023-01-02T21:27:14.046Z,12.20
2023-01-02T21:29:41.449Z,11.05
2023-01-02T21:32:08.554Z,11.80
2023-01-02T21:34:35.698Z,11.52
2023-01-02T21:37:02.834Z,11.30
2023-01-02T21:39:29.912Z,12.40
2023-01-02T21:42:15.727Z,11.95
2023-01-02T21:44:43.817Z,13.52
2023-01-02T21:47:10.881Z,15.13
2023-01-02T21:49:37.983Z,15.77
2023-01-02T21:52:05.470Z,15.60
2023-01-02T21:54:32.730Z,16.15
2023-01-02T21:56:59.858Z,16.58
2023-01-02T21:59:27.777Z,16.70
2023-01-02T22:01:57.098Z,18.13
2023-01-02T22:04:24.213Z,17.67
2023-01-02T22:07:30.023Z,18.38
2023-01-02T22:09:38.824Z,18.85
2023-01-02T22:12:07.017Z,18.35
2023-01-02T22:14:36.950Z,19.13
2023-01-02T22:17:07.757Z,18.73
2023-01-02T22:19:36.425Z,19.55
2023-01-02T22:22:04.400Z,20.48
2023-01-02T22:24:31.976Z,18.17
2023-01-02T22:27:05.225Z,17.73
2023-01-02T22:30:09.699Z,18.63
2023-01-02T22:32:21.687Z,17.92
2023-01-02T22:34:49.117Z,16.92
2023-01-02T22:37:22.000Z,17.10
2023-01-02T22:39:49.891Z,16.23
2023-01-02T22:43:00.159Z,16.83
2023-01-02T22:45:35.124Z,16.98
2023-01-02T22:48:07.548Z,17.50
2023-01-02T22:50:46.532Z,17.40
2023-01-02T22:53:27.733Z,18.10
2023-01-02T22:55:54.914Z,18.03
2023-01-02T22:58:22.862Z,17.83
2023-01-02T23:01:01.533Z,17.70
2023-01-02T23:03:39.018Z,17.63
2023-01-02T23:06:06.324Z,17.85
2023-01-02T23:08:33.591Z,17.37
2023-01-02T23:11:00.845Z,17.33
2023-01-02T23:13:28.025Z,16.20
2023-01-02T23:16:13.846Z,17.60
2023-01-02T23:18:59.774Z,16.08
2023-01-02T23:21:28.296Z,15.53
2023-01-02T23:23:55.602Z,16.73
2023-01-02T23:26:27.740Z,15.32
2023-01-02T23:29:10.217Z,15.35
2023-01-02T23:31:44.723Z,15.10
2023-01-02T23:34:14.468Z,14.87
2023-01-02T23:36:42.292Z,13.43
2023-01-02T23:39:18.272Z,13.88
2023-01-02T23:41:45.850Z,13.35
2023-01-02T23:44:14.120Z,12.90
2023-01-02T23:46:42.167Z,12.73
2023-01-02T23:49:11.205Z,13.52
2023-01-02T23:51:39.088Z,12.63
2023-01-02T23:54:07.997Z,12.80
2023-01-02T23:56:38.764Z,12.50
2023-01-02T23:59:09.986Z,11.63
